Time;durP1;ratioP1;P1;durP2;ratioP2;P2;SDS_P1;SDS_P2;PMS_P1;PMS_P2;Temp;Humidity;BMP_temperature;BMP_pressure;BME280_temperature;BME280_humidity;BME280_pressure;Samples;Min_cycle;Max_cycle;Signal;HPM_P1;HPM_P2
2021/12/29 00:00:26;;;;;;;17.25;6.38;;;;;;;;;;5069413;28;20028;-28
2021/12/29 00:03:00;;;;;;;18.27;7.32;;;;;;;;;;5069409;28;20528;-28
2021/12/29 00:05:29;;;;;;;21.98;8.40;;;;;;;;;;5070066;28;20112;-28
2021/12/29 00:07:55;;;;;;;25.77;8.60;;;;;;;;;;5069441;28;20497;-28
2021/12/29 00:10:22;;;;;;;19.85;8.25;;;;;;;;;;5081227;28;20511;-28
2021/12/29 00:12:52;;;;;;;21.05;8.18;;;;;;;;;;5089595;28;20086;-28
2021/12/29 00:15:28;;;;;;;19.73;7.95;;;;;;;;;;5087637;28;20048;-28
2021/12/29 00:17:58;;;;;;;17.83;6.47;;;;;;;;;;5081132;28;20200;-28
2021/12/29 00:20:29;;;;;;;13.65;6.00;;;;;;;;;;5070653;28;20424;-28
2021/12/29 00:22:58;;;;;;;18.38;7.30;;;;;;;;;;5069049;28;20040;-28
2021/12/29 00:25:27;;;;;;;12.02;5.47;;;;;;;;;;5080480;28;20055;-28
2021/12/29 00:27:55;;;;;;;12.00;5.28;;;;;;;;;;5080906;28;20456;-28
2021/12/29 00:30:22;;;;;;;10.70;4.95;;;;;;;;;;5081414;28;20123;-28
2021/12/29 00:32:51;;;;;;;13.35;5.72;;;;;;;;;;5093507;28;20085;-28
2021/12/29 00:35:20;;;;;;;13.13;5.30;;;;;;;;;;5089948;28;20036;-28
2021/12/29 00:37:46;;;;;;;14.57;6.07;;;;;;;;;;5092011;28;20054;-28
2021/12/29 00:40:12;;;;;;;13.05;5.45;;;;;;;;;;5090334;28;20052;-29
2021/12/29 00:42:39;;;;;;;13.43;5.63;;;;;;;;;;5093802;28;20040;-28
2021/12/29 00:45:06;;;;;;;14.27;5.43;;;;;;;;;;5086978;28;20082;-28
2021/12/29 00:47:42;;;;;;;14.35;6.30;;;;;;;;;;5059723;28;20035;-28
2021/12/29 00:50:13;;;;;;;15.23;5.97;;;;;;;;;;5091578;28;20400;-28
2021/12/29 00:52:39;;;;;;;12.73;5.88;;;;;;;;;;5093193;28;20178;-28
2021/12/29 00:55:05;;;;;;;16.55;6.28;;;;;;;;;;5087297;28;20528;-28
2021/12/29 00:57:31;;;;;;;17.58;6.35;;;;;;;;;;5074103;28;20040;-28
2021/12/29 00:59:57;;;;;;;14.63;5.93;;;;;;;;;;5073933;28;20101;-28
2021/12/29 01:02:27;;;;;;;21.08;6.65;;;;;;;;;;5072717;28;20123;-28
2021/12/29 01:05:05;;;;;;;18.35;6.30;;;;;;;;;;5075513;28;20601;-28
2021/12/29 01:07:31;;;;;;;15.43;6.85;;;;;;;;;;5080564;28;20044;-29
2021/12/29 01:09:59;;;;;;;21.98;7.60;;;;;;;;;;5074751;28;20076;-29
2021/12/29 01:12:25;;;;;;;24.30;7.95;;;;;;;;;;5093001;28;20087;-28
2021/12/29 01:14:54;;;;;;;22.75;8.07;;;;;;;;;;5091281;28;20511;-28
2021/12/29 01:17:24;;;;;;;22.10;8.07;;;;;;;;;;5074067;28;20029;-28
2021/12/29 01:19:57;;;;;;;24.63;8.23;;;;;;;;;;5072891;28;20519;-28
2021/12/29 01:22:23;;;;;;;29.98;9.27;;;;;;;;;;5091051;28;20467;-28
2021/12/29 01:24:49;;;;;;;26.40;9.80;;;;;;;;;;5091384;28;20113;-28
2021/12/29 01:27:16;;;;;;;29.13;9.35;;;;;;;;;;5090868;28;20040;-28
2021/12/29 01:29:48;;;;;;;35.78;10.15;;;;;;;;;;5081180;28;20045;-28
2021/12/29 01:32:15;;;;;;;28.80;8.98;;;;;;;;;;5088572;28;20044;-28
2021/12/29 01:34:41;;;;;;;34.08;10.55;;;;;;;;;;5092284;28;20072;-28
2021/12/29 01:37:07;;;;;;;39.60;11.55;;;;;;;;;;5074498;28;20075;-29
2021/12/29 01:39:45;;;;;;;36.35;11.18;;;;;;;;;;5071767;28;20044;-29
2021/12/29 01:42:14;;;;;;;33.38;10.55;;;;;;;;;;5071052;28;20040;-28
2021/12/29 01:44:40;;;;;;;44.13;10.73;;;;;;;;;;5092081;28;20098;-28
2021/12/29 01:47:09;;;;;;;38.65;10.55;;;;;;;;;;5092052;28;20065;-28
2021/12/29 01:49:35;;;;;;;42.53;11.07;;;;;;;;;;5092009;28;20044;-29
2021/12/29 01:52:04;;;;;;;43.22;11.10;;;;;;;;;;5091952;28;20040;-28
2021/12/29 01:54:35;;;;;;;57.22;12.73;;;;;;;;;;5073422;28;20036;-28
2021/12/29 01:57:25;;;;;;;45.35;12.15;;;;;;;;;;5082632;28;20048;-28
2021/12/29 01:59:51;;;;;;;41.22;11.30;;;;;;;;;;5054333;28;20040;-28
2021/12/29 02:02:17;;;;;;;48.28;11.73;;;;;;;;;;5071614;28;20051;-28
2021/12/29 02:04:44;;;;;;;57.53;11.75;;;;;;;;;;5071416;28;20119;-28
2021/12/29 02:07:10;;;;;;;66.32;13.75;;;;;;;;;;5084042;28;20473;-28
2021/12/29 02:09:43;;;;;;;77.97;13.70;;;;;;;;;;5063887;28;20081;-29
2021/12/29 02:12:18;;;;;;;63.80;13.70;;;;;;;;;;5079350;28;20149;-28
2021/12/29 02:14:44;;;;;;;56.22;12.75;;;;;;;;;;5070936;28;20504;-28
2021/12/29 02:17:13;;;;;;;45.97;11.88;;;;;;;;;;5083103;28;20032;-28
2021/12/29 02:19:44;;;;;;;44.65;11.55;;;;;;;;;;5091624;28;20445;-28
2021/12/29 02:22:32;;;;;;;43.88;10.73;;;;;;;;;;5078114;28;20268;-28
2021/12/29 02:25:58;;;;;;;43.58;10.63;;;;;;;;;;5070748;28;20071;-29
2021/12/29 02:28:05;;;;;;;45.83;11.02;;;;;;;;;;5073876;28;20052;-29
2021/12/29 02:30:34;;;;;;;39.90;10.55;;;;;;;;;;5091986;28;20048;-28
2021/12/29 02:33:02;;;;;;;33.90;10.82;;;;;;;;;;5074057;28;20071;-28
2021/12/29 02:35:31;;;;;;;37.42;10.93;;;;;;;;;;5083043;28;20071;-28
2021/12/29 02:37:59;;;;;;;41.83;10.43;;;;;;;;;;5075423;28;20040;-28
2021/12/29 02:40:31;;;;;;;31.15;9.45;;;;;;;;;;5071460;28;20040;-30
2021/12/29 02:43:00;;;;;;;39.97;10.73;;;;;;;;;;5085212;28;20123;-31
2021/12/29 02:45:26;;;;;;;34.33;9.30;;;;;;;;;;5092186;28;20516;-31
2021/12/29 02:47:53;;;;;;;35.03;9.70;;;;;;;;;;5078533;28;20551;-27
2021/12/29 02:50:25;;;;;;;29.20;8.40;;;;;;;;;;5076325;28;20036;-29
2021/12/29 02:52:51;;;;;;;24.48;8.27;;;;;;;;;;5091076;28;20036;-29
2021/12/29 02:55:19;;;;;;;20.40;7.88;;;;;;;;;;5084409;28;20040;-28
2021/12/29 02:57:45;;;;;;;21.42;7.55;;;;;;;;;;5071356;28;20464;-28
2021/12/29 03:00:13;;;;;;;24.55;7.80;;;;;;;;;;5071069;28;20375;-28
2021/12/29 03:02:39;;;;;;;24.63;8.57;;;;;;;;;;5071437;28;20040;-28
2021/12/29 03:05:05;;;;;;;23.92;8.38;;;;;;;;;;5080981;28;20119;-28
2021/12/29 03:07:34;;;;;;;23.55;8.43;;;;;;;;;;5074990;28;20509;-28
2021/12/29 03:10:00;;;;;;;28.85;10.73;;;;;;;;;;5090991;28;20109;-28
2021/12/29 03:12:29;;;;;;;27.42;11.02;;;;;;;;;;5085258;28;20048;-28
2021/12/29 03:14:58;;;;;;;31.83;11.55;;;;;;;;;;5069869;28;20038;-28
2021/12/29 03:17:25;;;;;;;41.22;13.38;;;;;;;;;;5074949;28;20343;-28
2021/12/29 03:19:59;;;;;;;40.60;14.18;;;;;;;;;;5090715;28;20043;-28
2021/12/29 03:22:25;;;;;;;44.95;14.93;;;;;;;;;;5090212;28;20036;-28
2021/12/29 03:25:00;;;;;;;40.13;15.13;;;;;;;;;;5090244;28;20047;-28
2021/12/29 03:27:26;;;;;;;45.47;16.23;;;;;;;;;;5071382;28;20058;-28
2021/12/29 03:29:52;;;;;;;46.72;17.15;;;;;;;;;;5090533;28;20452;-28
2021/12/29 03:32:35;;;;;;;55.45;17.60;;;;;;;;;;5076290;28;20045;-27
2021/12/29 03:35:01;;;;;;;50.20;18.13;;;;;;;;;;5071812;28;20321;-28
2021/12/29 03:37:27;;;;;;;62.15;18.55;;;;;;;;;;5073305;28;20036;-29
2021/12/29 03:39:53;;;;;;;57.50;19.92;;;;;;;;;;5092379;28;20459;-30
2021/12/29 03:42:19;;;;;;;60.65;19.15;;;;;;;;;;5090220;28;20059;-29
2021/12/29 03:44:45;;;;;;;53.42;19.30;;;;;;;;;;5083494;28;20048;-27
2021/12/29 03:47:11;;;;;;;51.22;18.85;;;;;;;;;;5052656;28;20083;-26
2021/12/29 03:49:37;;;;;;;59.13;20.58;;;;;;;;;;5070620;28;20052;-26
2021/12/29 03:52:05;;;;;;;64.07;21.35;;;;;;;;;;5070637;28;20086;-26
2021/12/29 03:54:31;;;;;;;51.88;18.48;;;;;;;;;;5070578;28;20079;-27
2021/12/29 03:57:01;;;;;;;49.42;17.10;;;;;;;;;;5070825;28;20508;-27
2021/12/29 03:59:27;;;;;;;44.63;17.38;;;;;;;;;;5070535;28;20045;-26
2021/12/29 04:01:54;;;;;;;39.20;15.73;;;;;;;;;;5070754;28;20036;-27
2021/12/29 04:04:20;;;;;;;41.08;15.45;;;;;;;;;;5069720;28;20119;-27
2021/12/29 04:06:46;;;;;;;34.17;15.43;;;;;;;;;;5070188;28;20055;-27
2021/12/29 04:09:12;;;;;;;40.58;15.57;;;;;;;;;;5070210;28;20071;-27
2021/12/29 04:11:38;;;;;;;41.05;16.65;;;;;;;;;;5070067;28;20093;-26
2021/12/29 04:14:04;;;;;;;36.42;15.70;;;;;;;;;;5069971;28;20051;-26
2021/12/29 04:16:35;;;;;;;36.00;15.20;;;;;;;;;;5069547;28;20032;-26
2021/12/29 04:19:14;;;;;;;34.10;14.32;;;;;;;;;;5070303;28;20109;-26
2021/12/29 04:21:41;;;;;;;32.75;14.50;;;;;;;;;;5076978;28;20054;-28
2021/12/29 04:24:08;;;;;;;28.77;13.52;;;;;;;;;;5078715;28;20047;-28
2021/12/29 04:26:36;;;;;;;32.65;14.25;;;;;;;;;;5084505;28;20523;-28
2021/12/29 04:29:03;;;;;;;31.17;13.57;;;;;;;;;;5087886;28;20036;-28
2021/12/29 04:31:29;;;;;;;28.50;13.38;;;;;;;;;;5088849;28;20051;-29
2021/12/29 04:33:55;;;;;;;31.25;13.55;;;;;;;;;;5086729;28;20039;-28
2021/12/29 04:36:24;;;;;;;28.55;13.43;;;;;;;;;;5076796;28;20162;-28
2021/12/29 04:38:54;;;;;;;23.77;12.80;;;;;;;;;;5075055;28;20485;-28
2021/12/29 04:41:21;;;;;;;26.85;13.10;;;;;;;;;;5089401;28;20508;-28
2021/12/29 04:43:48;;;;;;;24.98;13.18;;;;;;;;;;5083138;28;20090;-28
2021/12/29 04:46:16;;;;;;;26.45;13.43;;;;;;;;;;5052386;28;20052;-29
2021/12/29 04:48:49;;;;;;;27.52;13.27;;;;;;;;;;5087026;28;20405;-28
2021/12/29 04:51:22;;;;;;;27.63;12.95;;;;;;;;;;5089512;28;20052;-28
2021/12/29 04:53:48;;;;;;;34.58;13.95;;;;;;;;;;5084566;28;20044;-28
2021/12/29 04:56:18;;;;;;;32.42;13.85;;;;;;;;;;5069342;28;20063;-28
2021/12/29 04:58:44;;;;;;;34.55;14.70;;;;;;;;;;5070801;28;20401;-28
2021/12/29 05:01:10;;;;;;;27.98;14.15;;;;;;;;;;5089145;28;20503;-28
2021/12/29 05:03:37;;;;;;;28.60;14.77;;;;;;;;;;5087872;28;20039;-28
2021/12/29 05:08:33;;;;;;;28.88;14.13;;;;;;;;;;5090880;28;20067;-27
2021/12/29 05:11:04;;;;;;;33.72;15.27;;;;;;;;;;5072002;28;20032;-27
2021/12/29 05:13:32;;;;;;;30.88;14.73;;;;;;;;;;5069537;28;20036;-27
2021/12/29 05:15:58;;;;;;;34.47;16.20;;;;;;;;;;5069638;28;20047;-27
2021/12/29 05:18:25;;;;;;;33.58;14.80;;;;;;;;;;5073268;28;20116;-27
2021/12/29 05:20:51;;;;;;;33.55;15.80;;;;;;;;;;5073427;28;20128;-27
2021/12/29 05:23:18;;;;;;;35.30;16.60;;;;;;;;;;5073503;28;20071;-27
2021/12/29 05:25:44;;;;;;;35.42;15.85;;;;;;;;;;5073140;28;20109;-26
2021/12/29 05:28:10;;;;;;;31.45;14.63;;;;;;;;;;5073026;28;20046;-27
2021/12/29 05:30:36;;;;;;;32.53;15.35;;;;;;;;;;5073038;28;20573;-27
2021/12/29 05:33:03;;;;;;;32.58;15.70;;;;;;;;;;5073027;28;20402;-27
2021/12/29 05:35:29;;;;;;;36.88;16.17;;;;;;;;;;5073230;28;20033;-27
2021/12/29 05:37:55;;;;;;;36.15;16.23;;;;;;;;;;5073095;28;20044;-27
2021/12/29 05:40:22;;;;;;;38.47;18.92;;;;;;;;;;5073294;28;20491;-27
2021/12/29 05:42:48;;;;;;;41.10;19.02;;;;;;;;;;5073080;28;20044;-27
2021/12/29 05:45:14;;;;;;;44.72;25.48;;;;;;;;;;5072964;28;20417;-27
2021/12/29 05:47:40;;;;;;;39.03;18.00;;;;;;;;;;5073139;28;20047;-27
2021/12/29 05:50:08;;;;;;;37.63;18.70;;;;;;;;;;5073036;28;20045;-27
2021/12/29 05:52:34;;;;;;;34.83;17.55;;;;;;;;;;5072226;28;20040;-27
2021/12/29 05:55:00;;;;;;;39.40;18.75;;;;;;;;;;5054944;28;20513;-27
2021/12/29 05:57:26;;;;;;;36.65;17.42;;;;;;;;;;5072617;28;20086;-27
2021/12/29 05:59:52;;;;;;;39.63;17.83;;;;;;;;;;5072550;28;20047;-27
2021/12/29 06:02:18;;;;;;;36.08;18.05;;;;;;;;;;5053892;28;20058;-27
2021/12/29 06:04:44;;;;;;;41.90;18.10;;;;;;;;;;5072742;28;20397;-27
2021/12/29 06:07:11;;;;;;;38.75;18.20;;;;;;;;;;5054612;28;20119;-27
2021/12/29 06:09:38;;;;;;;39.45;18.40;;;;;;;;;;5072875;28;20050;-27
2021/12/29 06:12:04;;;;;;;36.30;17.17;;;;;;;;;;5037946;28;20398;-27
2021/12/29 06:14:30;;;;;;;37.50;17.27;;;;;;;;;;5054363;28;20051;-27
2021/12/29 06:16:56;;;;;;;37.88;18.00;;;;;;;;;;5072519;28;20047;-27
2021/12/29 06:19:22;;;;;;;40.78;17.63;;;;;;;;;;5072455;28;20383;-27
2021/12/29 06:21:48;;;;;;;34.88;16.35;;;;;;;;;;5072020;28;20047;-27
2021/12/29 06:24:14;;;;;;;35.20;16.73;;;;;;;;;;5072125;28;20495;-25
2021/12/29 06:26:40;;;;;;;33.38;15.77;;;;;;;;;;5053943;28;20052;-26
2021/12/29 06:29:06;;;;;;;32.50;15.48;;;;;;;;;;5072090;28;20393;-26
2021/12/29 06:31:33;;;;;;;33.63;15.65;;;;;;;;;;5072354;28;20043;-26
2021/12/29 06:33:59;;;;;;;36.15;15.75;;;;;;;;;;5053843;28;20040;-26
2021/12/29 06:36:25;;;;;;;30.27;13.95;;;;;;;;;;5071911;28;20043;-26
2021/12/29 06:38:52;;;;;;;31.95;13.70;;;;;;;;;;5071884;28;20071;-26
2021/12/29 06:41:18;;;;;;;28.90;14.23;;;;;;;;;;5071844;28;20062;-26
2021/12/29 06:43:44;;;;;;;32.72;15.40;;;;;;;;;;5053174;28;20045;-26
2021/12/29 06:46:10;;;;;;;31.73;13.98;;;;;;;;;;5053595;28;20051;-27
2021/12/29 06:48:36;;;;;;;27.20;13.75;;;;;;;;;;5053877;28;20512;-26
2021/12/29 06:51:02;;;;;;;31.35;13.35;;;;;;;;;;5071274;28;20065;-26
2021/12/29 06:53:30;;;;;;;30.08;13.52;;;;;;;;;;5071429;28;20119;-27
2021/12/29 06:55:56;;;;;;;29.17;14.30;;;;;;;;;;5071569;28;20068;-27
2021/12/29 06:58:22;;;;;;;33.88;15.38;;;;;;;;;;5071622;28;20132;-27
2021/12/29 07:00:48;;;;;;;29.13;13.77;;;;;;;;;;5071544;28;20037;-26
2021/12/29 07:03:14;;;;;;;33.67;14.38;;;;;;;;;;5071262;28;20253;-26
2021/12/29 07:05:40;;;;;;;39.60;15.73;;;;;;;;;;5037189;28;20048;-26
2021/12/29 07:08:07;;;;;;;37.28;15.10;;;;;;;;;;5071317;28;20040;-26
2021/12/29 07:10:33;;;;;;;41.45;15.75;;;;;;;;;;5053586;28;20052;-26
2021/12/29 07:12:59;;;;;;;37.63;15.90;;;;;;;;;;5069970;28;20055;-26
2021/12/29 07:15:26;;;;;;;40.40;17.13;;;;;;;;;;5052790;28;20691;-26
2021/12/29 07:17:52;;;;;;;45.30;17.85;;;;;;;;;;5070794;28;20048;-26
2021/12/29 07:20:18;;;;;;;45.28;16.50;;;;;;;;;;5071355;28;20039;-26
2021/12/29 07:22:44;;;;;;;48.78;17.20;;;;;;;;;;5070708;28;20402;-26
2021/12/29 07:25:10;;;;;;;58.53;17.98;;;;;;;;;;5070361;28;20032;-26
2021/12/29 07:27:36;;;;;;;84.75;35.97;;;;;;;;;;5069360;28;20050;-26
2021/12/29 07:30:02;;;;;;;42.92;16.08;;;;;;;;;;5070459;28;20044;-26
2021/12/29 07:32:28;;;;;;;44.25;16.75;;;;;;;;;;5069987;28;20036;-26
2021/12/29 07:34:54;;;;;;;44.72;16.33;;;;;;;;;;5070487;28;20425;-26
2021/12/29 07:37:20;;;;;;;46.40;15.63;;;;;;;;;;5070421;28;20094;-27
2021/12/29 07:39:46;;;;;;;47.83;15.88;;;;;;;;;;5069241;28;20047;-27
2021/12/29 07:42:12;;;;;;;44.42;16.27;;;;;;;;;;5070116;28;20040;-27
2021/12/29 07:44:40;;;;;;;39.97;14.50;;;;;;;;;;5070192;28;20040;-27
2021/12/29 07:47:06;;;;;;;49.60;17.23;;;;;;;;;;5069517;28;20106;-27
2021/12/29 07:49:32;;;;;;;49.72;15.60;;;;;;;;;;5070098;28;20608;-26
2021/12/29 07:51:59;;;;;;;50.35;16.30;;;;;;;;;;5070158;28;20041;-27
2021/12/29 07:54:25;;;;;;;43.50;15.82;;;;;;;;;;5070113;28;20039;-27
2021/12/29 07:56:51;;;;;;;47.20;18.17;;;;;;;;;;5069789;28;20033;-26
2021/12/29 07:59:19;;;;;;;52.15;16.67;;;;;;;;;;5067144;28;20127;-26
2021/12/29 08:01:45;;;;;;;58.10;25.80;;;;;;;;;;5068528;28;20455;-26
2021/12/29 08:04:15;;;;;;;50.95;18.00;;;;;;;;;;5066059;28;20087;-26
2021/12/29 08:06:41;;;;;;;47.75;16.98;;;;;;;;;;5068693;28;20040;-27
2021/12/29 08:09:07;;;;;;;47.67;16.67;;;;;;;;;;5069364;28;20076;-26
2021/12/29 08:11:34;;;;;;;51.05;16.88;;;;;;;;;;5069770;28;20045;-27
2021/12/29 08:14:00;;;;;;;46.15;16.13;;;;;;;;;;5068958;28;20039;-26
2021/12/29 08:16:26;;;;;;;41.50;15.95;;;;;;;;;;5070580;28;20075;-26
2021/12/29 08:18:52;;;;;;;44.97;16.27;;;;;;;;;;5070038;28;20063;-27
2021/12/29 08:21:18;;;;;;;40.25;14.20;;;;;;;;;;5070808;28;20032;-27
2021/12/29 08:23:44;;;;;;;46.38;15.75;;;;;;;;;;5070520;28;20119;-27
2021/12/29 08:26:10;;;;;;;46.08;16.27;;;;;;;;;;5069853;28;20120;-27
2021/12/29 08:28:36;;;;;;;44.50;15.68;;;;;;;;;;5069399;28;20048;-27
2021/12/29 08:31:03;;;;;;;44.25;16.08;;;;;;;;;;5069324;28;20044;-27
2021/12/29 08:33:29;;;;;;;45.80;16.30;;;;;;;;;;5069867;28;20059;-27
2021/12/29 08:35:55;;;;;;;42.65;16.25;;;;;;;;;;5069387;28;20076;-27
2021/12/29 08:38:21;;;;;;;37.63;13.85;;;;;;;;;;5051489;28;20047;-27
2021/12/29 08:40:48;;;;;;;37.15;14.23;;;;;;;;;;5069343;28;20048;-27
2021/12/29 08:43:16;;;;;;;40.28;14.55;;;;;;;;;;5068178;28;20126;-27
2021/12/29 08:45:42;;;;;;;33.53;14.65;;;;;;;;;;5064226;28;20044;-27
2021/12/29 08:48:09;;;;;;;35.88;14.10;;;;;;;;;;5064486;28;20040;-27
2021/12/29 08:50:35;;;;;;;44.33;16.02;;;;;;;;;;5065810;28;20048;-27
2021/12/29 08:53:02;;;;;;;34.30;12.65;;;;;;;;;;5069100;28;20036;-27
2021/12/29 08:55:29;;;;;;;37.67;13.38;;;;;;;;;;5069554;28;20072;-27
2021/12/29 08:57:55;;;;;;;30.65;12.70;;;;;;;;;;5069915;28;20070;-27
2021/12/29 09:00:21;;;;;;;34.90;12.13;;;;;;;;;;5089796;28;20032;-27
2021/12/29 09:02:48;;;;;;;34.15;11.60;;;;;;;;;;5087956;28;20454;-27
2021/12/29 09:05:16;;;;;;;35.83;12.43;;;;;;;;;;5089045;28;20247;-28
2021/12/29 09:07:42;;;;;;;39.90;12.57;;;;;;;;;;5088883;28;20067;-29
2021/12/29 09:10:09;;;;;;;46.58;13.45;;;;;;;;;;5085748;28;20032;-28
2021/12/29 09:12:35;;;;;;;32.40;12.20;;;;;;;;;;5088498;28;20036;-29
2021/12/29 09:15:02;;;;;;;38.42;11.82;;;;;;;;;;5078232;28;20452;-29
2021/12/29 09:17:28;;;;;;;39.10;13.23;;;;;;;;;;5074065;28;20047;-26
2021/12/29 09:19:55;;;;;;;36.95;13.65;;;;;;;;;;5075996;28;20047;-27
2021/12/29 09:22:21;;;;;;;34.83;12.77;;;;;;;;;;5056668;28;20041;-30
2021/12/29 09:24:47;;;;;;;33.15;12.43;;;;;;;;;;5073209;28;20119;-29
2021/12/29 09:27:16;;;;;;;36.17;12.13;;;;;;;;;;5082132;28;20043;-28
2021/12/29 09:29:42;;;;;;;33.20;12.50;;;;;;;;;;5076430;28;20043;-28
2021/12/29 09:32:08;;;;;;;27.52;11.75;;;;;;;;;;5085056;28;20553;-28
2021/12/29 09:34:35;;;;;;;26.30;11.63;;;;;;;;;;5081213;28;20123;-28
2021/12/29 09:37:02;;;;;;;29.65;12.38;;;;;;;;;;5085195;28;20028;-28
2021/12/29 09:39:28;;;;;;;28.90;12.57;;;;;;;;;;5069179;28;20040;-29
2021/12/29 09:41:54;;;;;;;32.47;16.20;;;;;;;;;;5084729;28;20432;-29
2021/12/29 09:44:21;;;;;;;27.13;13.23;;;;;;;;;;5089709;28;20078;-32
2021/12/29 09:46:48;;;;;;;24.27;12.05;;;;;;;;;;5090282;28;20039;-28
2021/12/29 09:49:14;;;;;;;28.95;11.95;;;;;;;;;;5089967;28;20321;-29
2021/12/29 09:51:40;;;;;;;27.60;12.27;;;;;;;;;;5070907;28;20074;-29
2021/12/29 09:54:06;;;;;;;25.30;11.05;;;;;;;;;;5087943;28;20040;-30
2021/12/29 09:56:33;;;;;;;28.42;10.95;;;;;;;;;;5087855;28;20043;-28
2021/12/29 09:59:10;;;;;;;26.42;10.43;;;;;;;;;;5086731;28;20060;-27
2021/12/29 10:01:36;;;;;;;25.65;10.90;;;;;;;;;;5079981;28;20048;-27
2021/12/29 10:04:02;;;;;;;26.52;11.73;;;;;;;;;;5084513;28;20067;-28
2021/12/29 10:06:28;;;;;;;28.00;10.82;;;;;;;;;;5087474;28;20052;-29
2021/12/29 10:08:54;;;;;;;28.27;10.57;;;;;;;;;;5094090;28;20520;-27
2021/12/29 10:11:36;;;;;;;25.50;10.75;;;;;;;;;;5093252;28;20043;-27
2021/12/29 10:14:13;;;;;;;25.98;11.02;;;;;;;;;;5092049;28;20036;-26
2021/12/29 10:16:44;;;;;;;;;;;;;;;;;;5071721;28;20071;-27
2021/12/29 10:19:13;;;;;;;23.60;10.88;;;;;;;;;;5088194;28;19922;-27
2021/12/29 10:21:57;;;;;;;28.23;12.43;;;;;;;;;;5088520;28;20485;-27
2021/12/29 10:24:37;;;;;;;32.70;17.55;;;;;;;;;;5089754;28;20378;-27
2021/12/29 10:27:03;;;;;;;30.95;13.63;;;;;;;;;;5089415;28;20066;-26
2021/12/29 10:29:31;;;;;;;22.80;11.40;;;;;;;;;;5092012;28;20177;-26
2021/12/29 10:32:02;;;;;;;25.30;12.00;;;;;;;;;;5094408;28;20047;-27
2021/12/29 10:34:32;;;;;;;24.85;11.43;;;;;;;;;;5094476;28;20117;-27
2021/12/29 10:37:07;;;;;;;27.02;12.73;;;;;;;;;;5094136;28;20392;-26
2021/12/29 10:39:34;;;;;;;26.42;13.07;;;;;;;;;;5094156;28;20047;-37
2021/12/29 10:42:03;;;;;;;26.48;12.23;;;;;;;;;;5093865;28;20046;-25
2021/12/29 10:44:32;;;;;;;24.13;11.02;;;;;;;;;;5091649;28;20089;-29
2021/12/29 10:47:03;;;;;;;22.50;12.13;;;;;;;;;;5071530;28;20578;-29
2021/12/29 10:49:39;;;;;;;25.55;12.57;;;;;;;;;;5083706;28;20582;-29
2021/12/29 10:52:05;;;;;;;27.48;12.20;;;;;;;;;;5072268;28;20094;-26
2021/12/29 10:54:40;;;;;;;24.63;11.98;;;;;;;;;;5072247;28;20516;-26
2021/12/29 10:57:09;;;;;;;21.60;11.05;;;;;;;;;;5072456;28;20037;-27
2021/12/29 10:59:41;;;;;;;25.10;12.82;;;;;;;;;;5072352;28;20422;-27
2021/12/29 11:02:13;;;;;;;23.33;10.80;;;;;;;;;;5072149;28;20388;-27
2021/12/29 11:04:53;;;;;;;22.58;11.02;;;;;;;;;;5070656;28;20405;-27
2021/12/29 11:07:24;;;;;;;26.98;12.23;;;;;;;;;;5071961;28;20045;-27
2021/12/29 11:09:50;;;;;;;25.10;12.13;;;;;;;;;;5072252;28;20040;-27
2021/12/29 11:12:25;;;;;;;27.83;12.82;;;;;;;;;;5079084;28;20048;-31
2021/12/29 11:14:53;;;;;;;30.17;11.40;;;;;;;;;;5080085;28;20040;-31
2021/12/29 11:17:48;;;;;;;28.42;11.20;;;;;;;;;;5091729;28;20036;-28
2021/12/29 11:20:22;;;;;;;24.05;10.23;;;;;;;;;;5070500;28;20047;-28
2021/12/29 11:22:48;;;;;;;;;;;;;;;;;;5083441;28;20083;-27
2021/12/29 11:25:14;;;;;;;26.52;9.90;;;;;;;;;;5053078;28;20583;-28
2021/12/29 11:27:47;;;;;;;36.63;15.05;;;;;;;;;;5078822;28;20454;-28
2021/12/29 11:30:16;;;;;;;55.10;24.58;;;;;;;;;;5091767;28;20044;-28
2021/12/29 11:32:43;;;;;;;34.60;17.38;;;;;;;;;;5070440;28;20044;-28
2021/12/29 11:35:12;;;;;;;38.67;19.38;;;;;;;;;;5056372;28;20036;-28
2021/12/29 11:37:41;;;;;;;33.67;14.82;;;;;;;;;;5089430;28;20039;-27
2021/12/29 11:40:08;;;;;;;40.50;17.00;;;;;;;;;;5072614;28;20063;-27
2021/12/29 11:42:34;;;;;;;26.15;11.95;;;;;;;;;;5081280;28;20169;-27
2021/12/29 11:45:00;;;;;;;33.78;14.38;;;;;;;;;;5069877;28;20045;-27
2021/12/29 11:47:27;;;;;;;30.80;15.13;;;;;;;;;;5070253;28;20130;-27
2021/12/29 11:49:53;;;;;;;31.33;13.30;;;;;;;;;;5069838;28;20519;-29
2021/12/29 11:52:29;;;;;;;27.77;13.15;;;;;;;;;;5070461;28;20037;-27
2021/12/29 11:55:04;;;;;;;27.67;11.73;;;;;;;;;;5069824;28;20150;-26
2021/12/29 11:57:31;;;;;;;34.10;15.73;;;;;;;;;;5070588;28;20531;-26
2021/12/29 12:00:08;;;;;;;47.67;24.52;;;;;;;;;;5070780;28;20374;-26
2021/12/29 12:02:37;;;;;;;31.52;14.48;;;;;;;;;;5067236;28;20410;-26
2021/12/29 12:05:05;;;;;;;30.05;14.00;;;;;;;;;;5070634;28;20067;-26
2021/12/29 12:07:31;;;;;;;26.52;14.73;;;;;;;;;;5070329;28;20491;-25
2021/12/29 12:10:07;;;;;;;27.52;11.48;;;;;;;;;;5070358;28;20044;-26
2021/12/29 12:12:37;;;;;;;28.33;13.13;;;;;;;;;;5052469;28;20037;-26
2021/12/29 12:15:04;;;;;;;33.10;16.48;;;;;;;;;;5070413;28;20097;-26
2021/12/29 12:17:36;;;;;;;30.20;14.32;;;;;;;;;;5070055;28;20070;-26
2021/12/29 12:20:05;;;;;;;29.27;13.00;;;;;;;;;;5069858;28;20090;-26
2021/12/29 12:22:49;;;;;;;26.17;13.52;;;;;;;;;;5069766;28;20032;-26
2021/12/29 12:25:36;;;;;;;25.98;13.35;;;;;;;;;;5050652;28;20041;-25
2021/12/29 12:28:03;;;;;;;28.40;12.85;;;;;;;;;;5070163;28;20044;-27
2021/12/29 12:30:53;;;;;;;26.80;12.68;;;;;;;;;;5070211;28;20378;-25
2021/12/29 12:33:26;;;;;;;25.10;12.05;;;;;;;;;;5071476;28;20045;-26
2021/12/29 12:35:56;;;;;;;30.92;14.02;;;;;;;;;;5052992;28;20537;-26
2021/12/29 12:38:27;;;;;;;39.53;16.70;;;;;;;;;;5071183;28;20452;-26
2021/12/29 12:41:09;;;;;;;29.55;15.35;;;;;;;;;;5070798;28;20071;-26
2021/12/29 12:43:37;;;;;;;29.83;16.48;;;;;;;;;;5070713;28;20045;-26
2021/12/29 12:46:11;;;;;;;31.02;15.68;;;;;;;;;;5071092;28;20040;-27
2021/12/29 12:48:37;;;;;;;24.58;13.77;;;;;;;;;;5070985;28;20472;-27
2021/12/29 12:51:24;;;;;;;29.27;14.35;;;;;;;;;;5070897;28;20083;-26
2021/12/29 12:53:50;;;;;;;29.27;15.77;;;;;;;;;;5069920;28;20413;-27
2021/12/29 12:56:18;;;;;;;29.65;14.23;;;;;;;;;;5067223;28;20434;-27
2021/12/29 12:58:50;;;;;;;30.48;16.23;;;;;;;;;;5069099;28;20116;-31
2021/12/29 13:01:23;;;;;;;27.10;15.00;;;;;;;;;;5072887;28;20044;-27
2021/12/29 13:03:49;;;;;;;25.52;14.52;;;;;;;;;;5071629;28;20044;-30
2021/12/29 13:06:22;;;;;;;29.35;15.00;;;;;;;;;;5069299;28;20032;-31
2021/12/29 13:08:49;;;;;;;33.38;16.95;;;;;;;;;;5050737;28;20115;-31
2021/12/29 13:11:24;;;;;;;25.42;14.27;;;;;;;;;;5069224;28;20481;-31
2021/12/29 13:13:52;;;;;;;32.08;16.77;;;;;;;;;;5069133;28;20079;-31
2021/12/29 13:16:22;;;;;;;31.58;16.50;;;;;;;;;;5086136;28;20085;-30
2021/12/29 13:18:50;;;;;;;28.13;16.48;;;;;;;;;;5084304;28;20029;-31
2021/12/29 13:21:19;;;;;;;31.98;17.13;;;;;;;;;;5069774;28;20102;-30
2021/12/29 13:23:46;;;;;;;32.78;16.48;;;;;;;;;;5077300;28;20423;-30
2021/12/29 13:26:13;;;;;;;28.05;15.05;;;;;;;;;;5072940;28;20044;-30
2021/12/29 13:28:39;;;;;;;30.42;17.40;;;;;;;;;;5067740;28;20433;-30
2021/12/29 13:31:08;;;;;;;28.83;16.42;;;;;;;;;;5050270;28;20041;-30
2021/12/29 13:33:40;;;;;;;28.85;16.33;;;;;;;;;;5050684;28;20040;-31
2021/12/29 13:36:07;;;;;;;32.33;16.15;;;;;;;;;;5081485;28;20125;-30
2021/12/29 13:38:33;;;;;;;23.88;14.65;;;;;;;;;;5091876;28;20043;-30
2021/12/29 13:41:08;;;;;;;30.58;16.77;;;;;;;;;;5090529;28;20082;-29
2021/12/29 13:43:43;;;;;;;26.13;15.93;;;;;;;;;;5092408;28;20523;-31
2021/12/29 13:46:28;;;;;;;28.02;15.50;;;;;;;;;;5090682;28;20050;-31
2021/12/29 13:48:55;;;;;;;28.63;15.68;;;;;;;;;;5092105;28;20058;-32
2021/12/29 13:51:26;;;;;;;32.72;16.13;;;;;;;;;;5090733;28;20044;-31
2021/12/29 13:53:59;;;;;;;27.55;16.30;;;;;;;;;;5092084;28;20032;-30
2021/12/29 13:56:30;;;;;;;29.63;16.33;;;;;;;;;;5089240;28;20039;-31
2021/12/29 13:59:16;;;;;;;25.55;16.77;;;;;;;;;;5071669;28;20029;-31
2021/12/29 14:02:02;;;;;;;24.42;16.80;;;;;;;;;;5087689;28;20164;-30
2021/12/29 14:04:52;;;;;;;29.20;15.77;;;;;;;;;;5071043;28;20133;-32
2021/12/29 14:07:20;;;;;;;31.08;19.40;;;;;;;;;;5089128;28;20405;-31
2021/12/29 14:09:47;;;;;;;32.60;18.33;;;;;;;;;;5092438;28;20445;-30
2021/12/29 14:12:31;;;;;;;24.73;15.68;;;;;;;;;;5078428;28;20501;-32
2021/12/29 14:15:18;;;;;;;29.42;15.98;;;;;;;;;;5092265;28;20051;-32
2021/12/29 14:17:45;;;;;;;30.05;16.80;;;;;;;;;;5071687;28;20055;-29
2021/12/29 14:20:15;;;;;;;31.35;16.90;;;;;;;;;;5071762;28;20048;-31
2021/12/29 14:22:41;;;;;;;27.10;17.92;;;;;;;;;;5091754;28;20505;-30
2021/12/29 14:25:07;;;;;;;26.65;18.10;;;;;;;;;;5090054;28;20039;-31
2021/12/29 14:27:34;;;;;;;28.30;18.20;;;;;;;;;;5086430;28;20040;-31
2021/12/29 14:30:11;;;;;;;30.80;18.35;;;;;;;;;;5082925;28;20074;-29